Time;durP1;ratioP1;P1;durP2;ratioP2;P2;SDS_P1;SDS_P2;PMS_P1;PMS_P2;Temp;Humidity;BMP_temperature;BMP_pressure;BME280_temperature;BME280_humidity;BME280_pressure;Samples;Min_cycle;Max_cycle;Signal;HPM_P1;HPM_P2
2022/12/08 00:00:17;;;;;;;5.38;1.65;;;;;;;;;;5050313;28;20420;-71
2022/12/08 00:02:43;;;;;;;7.97;1.67;;;;;;;;;;5051208;28;20429;-71
2022/12/08 00:10:42;;;;;;;5.17;1.83;;;;;;;;;;5045407;28;20909;-71
2022/12/08 00:13:08;;;;;;;7.53;1.85;;;;;;;;;;5047937;28;20933;-71
2022/12/08 00:15:34;;;;;;;10.43;1.95;;;;;;;;;;5046991;28;20820;-71
2022/12/08 00:18:00;;;;;;;8.85;1.73;;;;;;;;;;5042366;28;20421;-72
2022/12/08 00:20:26;;;;;;;4.90;1.38;;;;;;;;;;5042075;28;20449;-72
2022/12/08 00:22:52;;;;;;;6.80;1.77;;;;;;;;;;5028998;28;20413;-72
2022/12/08 00:25:18;;;;;;;7.10;1.42;;;;;;;;;;5034479;28;20761;-72
2022/12/08 00:27:44;;;;;;;4.93;1.50;;;;;;;;;;5044989;28;20425;-72
2022/12/08 00:30:10;;;;;;;6.57;1.38;;;;;;;;;;5023904;28;20504;-72
2022/12/08 00:32:37;;;;;;;8.43;1.90;;;;;;;;;;5029802;28;20421;-72
2022/12/08 00:35:03;;;;;;;7.22;1.90;;;;;;;;;;5043328;28;20488;-72
2022/12/08 00:37:29;;;;;;;8.52;1.90;;;;;;;;;;5040710;28;20413;-73
2022/12/08 00:39:55;;;;;;;7.75;1.90;;;;;;;;;;5030905;28;20489;-73
2022/12/08 00:42:21;;;;;;;6.13;1.50;;;;;;;;;;5038705;28;20421;-73
2022/12/08 00:44:47;;;;;;;6.63;1.60;;;;;;;;;;5030610;28;20421;-73
2022/12/08 00:47:14;;;;;;;7.70;1.63;;;;;;;;;;5045160;28;20928;-72
2022/12/08 00:49:40;;;;;;;6.40;1.50;;;;;;;;;;5037055;28;20435;-73
2022/12/08 00:52:06;;;;;;;5.13;1.50;;;;;;;;;;5020794;28;20422;-72
2022/12/08 00:54:32;;;;;;;3.80;1.27;;;;;;;;;;5009127;28;20426;-72
2022/12/08 00:56:58;;;;;;;4.75;1.50;;;;;;;;;;4989035;28;20423;-73
2022/12/08 00:59:24;;;;;;;4.07;1.42;;;;;;;;;;5027634;28;20411;-72
2022/12/08 01:01:50;;;;;;;4.95;1.48;;;;;;;;;;5013514;28;20778;-72
2022/12/08 01:04:17;;;;;;;4.78;1.95;;;;;;;;;;5028602;28;21065;-72
2022/12/08 01:06:47;;;;;;;5.30;1.60;;;;;;;;;;5025295;28;20429;-73
2022/12/08 01:09:13;;;;;;;4.75;1.70;;;;;;;;;;5027948;28;20518;-72
2022/12/08 01:11:39;;;;;;;9.05;2.00;;;;;;;;;;5029276;28;20418;-72
2022/12/08 01:14:05;;;;;;;5.82;1.80;;;;;;;;;;5029651;28;20473;-73
2022/12/08 01:16:33;;;;;;;5.65;1.83;;;;;;;;;;5026207;28;20431;-72
2022/12/08 01:18:59;;;;;;;12.95;3.40;;;;;;;;;;5021755;28;20570;-73
2022/12/08 01:21:26;;;;;;;4.47;1.60;;;;;;;;;;5022912;28;20427;-73
2022/12/08 01:23:52;;;;;;;5.60;1.70;;;;;;;;;;5012979;28;20472;-72
2022/12/08 01:26:19;;;;;;;3.65;1.50;;;;;;;;;;5012697;28;20399;-73
2022/12/08 01:28:45;;;;;;;4.28;1.48;;;;;;;;;;5023562;28;20498;-73
2022/12/08 01:31:12;;;;;;;5.72;1.50;;;;;;;;;;5001182;28;20509;-73
2022/12/08 01:33:38;;;;;;;15.23;3.08;;;;;;;;;;5010013;28;20517;-73
2022/12/08 01:36:05;;;;;;;6.07;1.30;;;;;;;;;;4993358;28;20926;-72
2022/12/08 01:38:31;;;;;;;2.50;1.00;;;;;;;;;;5020129;28;20404;-73
2022/12/08 01:40:57;;;;;;;5.22;1.20;;;;;;;;;;5020154;28;20498;-73
2022/12/08 01:43:24;;;;;;;2.80;1.08;;;;;;;;;;5026293;28;20423;-73
2022/12/08 01:45:50;;;;;;;5.03;1.15;;;;;;;;;;5024009;28;20427;-73
2022/12/08 01:48:18;;;;;;;7.10;1.13;;;;;;;;;;5027739;28;20481;-73
2022/12/08 01:50:44;;;;;;;3.83;1.13;;;;;;;;;;5053062;28;20461;-70
2022/12/08 01:53:12;;;;;;;3.72;1.08;;;;;;;;;;5036224;28;20419;-71
2022/12/08 01:55:41;;;;;;;6.82;1.00;;;;;;;;;;5053573;28;20477;-71
2022/12/08 01:58:19;;;;;;;3.50;1.08;;;;;;;;;;5055647;28;20898;-71
2022/12/08 02:00:45;;;;;;;4.30;1.20;;;;;;;;;;5038500;28;20422;-81
2022/12/08 02:03:18;;;;;;;6.23;1.20;;;;;;;;;;5066538;28;20498;-82
2022/12/08 02:05:47;;;;;;;4.67;1.07;;;;;;;;;;5075741;28;20435;-81
2022/12/08 02:08:13;;;;;;;5.95;1.30;;;;;;;;;;5053185;28;20415;-81
2022/12/08 02:10:40;;;;;;;6.28;1.17;;;;;;;;;;5057017;28;20430;-82
2022/12/08 02:13:09;;;;;;;6.10;1.20;;;;;;;;;;5057406;28;20434;-81
2022/12/08 02:16:04;;;;;;;5.72;1.10;;;;;;;;;;5058484;28;20420;-82
2022/12/08 02:18:30;;;;;;;5.00;1.00;;;;;;;;;;5051396;28;20432;-81
2022/12/08 02:21:12;;;;;;;3.55;1.00;;;;;;;;;;5046301;28;20486;-81
2022/12/08 02:23:47;;;;;;;5.50;1.00;;;;;;;;;;5056512;28;20535;-82
2022/12/08 02:26:19;;;;;;;6.13;1.00;;;;;;;;;;5057814;28;20415;-82
2022/12/08 02:28:55;;;;;;;4.70;1.15;;;;;;;;;;5042443;28;20420;-82
2022/12/08 02:31:39;;;;;;;5.68;0.88;;;;;;;;;;5056781;28;20419;-82
2022/12/08 02:34:05;;;;;;;7.10;1.08;;;;;;;;;;5038813;28;20480;-80
2022/12/08 02:36:36;;;;;;;5.15;1.30;;;;;;;;;;5039449;28;20419;-82
2022/12/08 02:39:10;;;;;;;5.50;1.03;;;;;;;;;;5057933;28;20502;-82
2022/12/08 02:41:56;;;;;;;4.32;1.00;;;;;;;;;;5043909;28;20483;-81
2022/12/08 02:44:25;;;;;;;3.35;1.10;;;;;;;;;;5056042;28;20423;-82
2022/12/08 02:47:00;;;;;;;4.60;1.13;;;;;;;;;;5036003;28;21780;-82
2022/12/08 02:49:33;;;;;;;5.32;1.00;;;;;;;;;;5023127;28;20519;-81
2022/12/08 02:52:06;;;;;;;3.67;1.02;;;;;;;;;;5054965;28;20465;-81
2022/12/08 02:54:33;;;;;;;4.07;1.00;;;;;;;;;;5043109;28;20425;-81
2022/12/08 02:57:08;;;;;;;4.32;1.30;;;;;;;;;;5034984;28;20404;-82
2022/12/08 02:59:52;;;;;;;4.38;1.10;;;;;;;;;;5039885;28;20423;-82
2022/12/08 03:02:21;;;;;;;4.50;1.00;;;;;;;;;;5040652;28;20507;-81
2022/12/08 03:05:26;;;;;;;3.97;0.70;;;;;;;;;;5048752;28;20400;-81
2022/12/08 03:08:10;;;;;;;2.90;0.98;;;;;;;;;;5013643;28;20427;-81
2022/12/08 03:10:39;;;;;;;3.10;0.80;;;;;;;;;;5034089;28;20901;-81
2022/12/08 03:13:09;;;;;;;3.47;0.97;;;;;;;;;;5020674;28;20411;-81
2022/12/08 03:15:37;;;;;;;2.17;0.80;;;;;;;;;;5055293;28;20423;-81
2022/12/08 03:18:05;;;;;;;2.75;0.90;;;;;;;;;;5056360;28;20435;-81
2022/12/08 03:20:33;;;;;;;3.72;0.80;;;;;;;;;;5056559;28;20500;-81
2022/12/08 03:23:00;;;;;;;2.67;0.77;;;;;;;;;;5046068;28;20417;-81
2022/12/08 03:25:27;;;;;;;2.83;1.40;;;;;;;;;;5019942;28;20410;-81
2022/12/08 03:27:53;;;;;;;7.13;1.27;;;;;;;;;;5051293;28;20419;-81
2022/12/08 03:30:19;;;;;;;3.28;0.90;;;;;;;;;;5074080;28;20396;-81
2022/12/08 03:32:55;;;;;;;3.40;0.70;;;;;;;;;;5055701;28;20407;-81
2022/12/08 03:35:27;;;;;;;2.30;0.63;;;;;;;;;;5033595;28;20453;-81
2022/12/08 03:38:01;;;;;;;3.72;1.10;;;;;;;;;;5051880;28;20404;-79
2022/12/08 03:40:27;;;;;;;2.92;0.98;;;;;;;;;;5055094;28;20419;-82
2022/12/08 03:42:53;;;;;;;2.33;0.80;;;;;;;;;;5054978;28;20407;-82
2022/12/08 03:45:20;;;;;;;3.55;0.90;;;;;;;;;;5054771;28;20420;-81
2022/12/08 03:47:47;;;;;;;2.42;0.77;;;;;;;;;;5049815;28;20427;-82
2022/12/08 03:50:13;;;;;;;4.07;0.90;;;;;;;;;;5054698;28;20427;-82
2022/12/08 03:52:39;;;;;;;4.93;1.00;;;;;;;;;;5055076;28;20439;-83
2022/12/08 03:55:05;;;;;;;5.70;1.20;;;;;;;;;;5054324;28;20485;-83
2022/12/08 03:57:31;;;;;;;5.40;1.50;;;;;;;;;;5055063;28;20407;-81
2022/12/08 03:59:58;;;;;;;4.55;1.17;;;;;;;;;;5054516;28;20825;-81
2022/12/08 04:02:24;;;;;;;4.00;1.05;;;;;;;;;;5038314;28;20771;-82
2022/12/08 04:04:50;;;;;;;4.53;1.17;;;;;;;;;;5055306;28;20892;-81
2022/12/08 04:07:16;;;;;;;3.08;1.02;;;;;;;;;;5037941;28;20549;-81
2022/12/08 04:09:43;;;;;;;3.05;1.20;;;;;;;;;;5054963;28;20946;-81
2022/12/08 04:12:09;;;;;;;4.55;1.20;;;;;;;;;;5054003;28;20420;-82
2022/12/08 04:14:35;;;;;;;3.92;1.23;;;;;;;;;;5049991;28;20428;-82
2022/12/08 04:17:02;;;;;;;4.60;1.05;;;;;;;;;;5054499;28;20475;-82
2022/12/08 04:19:28;;;;;;;2.58;0.98;;;;;;;;;;5053895;28;20445;-82
2022/12/08 04:21:54;;;;;;;3.25;1.02;;;;;;;;;;5053710;28;20419;-82
2022/12/08 04:24:20;;;;;;;4.07;1.00;;;;;;;;;;5037018;28;20425;-81
2022/12/08 04:26:46;;;;;;;4.15;1.08;;;;;;;;;;5018237;28;20409;-81
2022/12/08 04:29:12;;;;;;;3.67;1.03;;;;;;;;;;5034803;28;20482;-80
2022/12/08 04:31:38;;;;;;;4.43;1.10;;;;;;;;;;5053142;28;20420;-81
2022/12/08 04:34:04;;;;;;;3.80;1.10;;;;;;;;;;5053877;28;20447;-82
2022/12/08 04:36:30;;;;;;;3.78;0.90;;;;;;;;;;5032361;28;20806;-81
2022/12/08 04:38:56;;;;;;;4.38;1.70;;;;;;;;;;5054949;28;20411;-81
2022/12/08 04:41:22;;;;;;;2.75;1.00;;;;;;;;;;5040987;28;20411;-81
2022/12/08 04:43:48;;;;;;;3.58;1.02;;;;;;;;;;5075570;28;20427;-82
2022/12/08 04:46:14;;;;;;;4.87;1.20;;;;;;;;;;5048295;28;20409;-81
2022/12/08 04:48:40;;;;;;;1.48;0.85;;;;;;;;;;5014424;28;20502;-81
2022/12/08 04:51:07;;;;;;;3.63;1.10;;;;;;;;;;5037919;28;20593;-81
2022/12/08 04:53:33;;;;;;;2.47;0.90;;;;;;;;;;5050581;28;20388;-81
2022/12/08 04:55:59;;;;;;;4.68;1.10;;;;;;;;;;5060639;28;20435;-82
2022/12/08 04:58:25;;;;;;;3.83;1.17;;;;;;;;;;5074979;28;20447;-82
2022/12/08 05:00:51;;;;;;;3.85;1.33;;;;;;;;;;5022679;28;20416;-81
2022/12/08 05:03:17;;;;;;;5.28;1.50;;;;;;;;;;5035301;28;20404;-82
2022/12/08 05:05:44;;;;;;;5.10;1.40;;;;;;;;;;5053358;28;20426;-81
2022/12/08 05:08:12;;;;;;;6.40;3.33;;;;;;;;;;5038161;28;20456;-82
2022/12/08 05:10:39;;;;;;;3.67;1.30;;;;;;;;;;5054190;28;20518;-82
2022/12/08 05:13:05;;;;;;;2.58;1.35;;;;;;;;;;5049055;28;20427;-82
2022/12/08 05:15:31;;;;;;;4.80;1.45;;;;;;;;;;5050853;28;20428;-82
2022/12/08 05:17:57;;;;;;;6.25;1.80;;;;;;;;;;5054051;28;20431;-82
2022/12/08 05:20:23;;;;;;;5.63;1.90;;;;;;;;;;5037489;28;20497;-82
2022/12/08 05:22:49;;;;;;;4.70;2.88;;;;;;;;;;5036165;28;20447;-82
2022/12/08 05:25:15;;;;;;;5.23;1.90;;;;;;;;;;5041571;28;20421;-82
2022/12/08 05:27:42;;;;;;;52.85;5.30;;;;;;;;;;5017478;28;20463;-82
2022/12/08 05:30:08;;;;;;;3.30;1.38;;;;;;;;;;5038193;28;20408;-72
2022/12/08 05:32:34;;;;;;;3.60;1.10;;;;;;;;;;5046142;28;20452;-72
2022/12/08 05:35:00;;;;;;;3.13;0.90;;;;;;;;;;5037582;28;20447;-71
2022/12/08 05:37:26;;;;;;;2.83;1.17;;;;;;;;;;5053337;28;20957;-71
2022/12/08 05:39:52;;;;;;;4.57;1.00;;;;;;;;;;5041108;28;20406;-72
2022/12/08 05:42:18;;;;;;;3.20;1.00;;;;;;;;;;5036802;28;20419;-72
2022/12/08 05:44:44;;;;;;;6.03;1.80;;;;;;;;;;5057241;28;20486;-72
2022/12/08 05:47:10;;;;;;;6.15;1.98;;;;;;;;;;5069600;28;20407;-72
2022/12/08 05:49:36;;;;;;;3.72;1.10;;;;;;;;;;5054800;28;20454;-72
2022/12/08 05:52:02;;;;;;;2.97;1.30;;;;;;;;;;5036624;28;20531;-72
2022/12/08 05:54:29;;;;;;;4.70;1.80;;;;;;;;;;5038439;28;20914;-72
2022/12/08 05:56:55;;;;;;;3.92;1.40;;;;;;;;;;5049655;28;20419;-72
2022/12/08 05:59:21;;;;;;;4.40;1.37;;;;;;;;;;5049986;28;20506;-72
2022/12/08 06:01:47;;;;;;;5.18;1.50;;;;;;;;;;5022581;28;20417;-72
2022/12/08 06:04:13;;;;;;;5.30;2.40;;;;;;;;;;5025063;28;20500;-72
2022/12/08 06:06:39;;;;;;;5.30;2.00;;;;;;;;;;5052612;28;20426;-72
2022/12/08 06:09:06;;;;;;;4.32;2.20;;;;;;;;;;5040278;28;20482;-72
2022/12/08 06:11:32;;;;;;;4.32;2.10;;;;;;;;;;5054480;28;20419;-73
2022/12/08 06:13:59;;;;;;;4.10;1.80;;;;;;;;;;5043814;28;20433;-73
2022/12/08 06:16:25;;;;;;;6.35;2.28;;;;;;;;;;5045361;28;20448;-72
2022/12/08 06:18:52;;;;;;;7.43;2.63;;;;;;;;;;5052750;28;20427;-73
2022/12/08 06:21:18;;;;;;;47.50;5.63;;;;;;;;;;5054252;28;20411;-73
2022/12/08 06:23:47;;;;;;;35.23;4.87;;;;;;;;;;5031256;28;20530;-73
2022/12/08 06:26:14;;;;;;;20.77;4.10;;;;;;;;;;5039419;28;20509;-73
2022/12/08 06:28:40;;;;;;;179.68;17.60;;;;;;;;;;5018703;28;20413;-73
2022/12/08 06:31:07;;;;;;;67.85;6.72;;;;;;;;;;5039586;28;20446;-73
2022/12/08 06:33:34;;;;;;;9.05;2.90;;;;;;;;;;5051288;28;20420;-73
2022/12/08 06:36:00;;;;;;;33.75;5.20;;;;;;;;;;5035718;28;20431;-72
2022/12/08 06:38:26;;;;;;;139.32;21.52;;;;;;;;;;5042511;28;20427;-73
2022/12/08 06:40:54;;;;;;;7.70;2.88;;;;;;;;;;5041174;28;20430;-73
2022/12/08 06:43:20;;;;;;;89.93;14.50;;;;;;;;;;5050206;28;20422;-72
2022/12/08 06:45:46;;;;;;;211.82;20.42;;;;;;;;;;5055052;28;20457;-73
2022/12/08 06:48:12;;;;;;;13.18;4.97;;;;;;;;;;5032690;28;20423;-72
2022/12/08 06:50:38;;;;;;;5.93;2.35;;;;;;;;;;5052928;28;20423;-72
2022/12/08 06:53:04;;;;;;;7.03;2.40;;;;;;;;;;5054567;28;20428;-72
2022/12/08 06:55:30;;;;;;;5.00;1.98;;;;;;;;;;5036925;28;20431;-72
2022/12/08 06:57:56;;;;;;;9.13;2.60;;;;;;;;;;5048897;28;20481;-73
2022/12/08 07:00:22;;;;;;;5.13;2.33;;;;;;;;;;5036651;28;20416;-73
2022/12/08 07:02:48;;;;;;;7.47;3.00;;;;;;;;;;5054295;28;20748;-73
2022/12/08 07:05:14;;;;;;;26.15;4.75;;;;;;;;;;5038957;28;20450;-73
2022/12/08 07:07:40;;;;;;;23.70;3.90;;;;;;;;;;5055191;28;20442;-74
2022/12/08 07:10:07;;;;;;;41.60;6.55;;;;;;;;;;5047837;28;20434;-73
2022/12/08 07:12:33;;;;;;;156.85;14.23;;;;;;;;;;5035961;28;20423;-73
2022/12/08 07:14:59;;;;;;;139.77;12.10;;;;;;;;;;5053362;28;20481;-73
2022/12/08 07:17:25;;;;;;;7.75;2.80;;;;;;;;;;5040985;28;20425;-74
2022/12/08 07:19:51;;;;;;;6.45;2.90;;;;;;;;;;5031724;28;20418;-73
2022/12/08 07:22:17;;;;;;;9.25;3.85;;;;;;;;;;5036911;28;20419;-73
2022/12/08 07:24:44;;;;;;;13.18;4.03;;;;;;;;;;5048044;28;20425;-73
2022/12/08 07:27:10;;;;;;;18.33;4.57;;;;;;;;;;5037988;28;20480;-73
2022/12/08 07:29:36;;;;;;;7.18;3.05;;;;;;;;;;5034247;28;20422;-73
2022/12/08 07:32:02;;;;;;;5.93;3.08;;;;;;;;;;5047393;28;20423;-73
2022/12/08 07:34:28;;;;;;;6.88;3.00;;;;;;;;;;5047090;28;20415;-73
2022/12/08 07:36:54;;;;;;;20.63;6.70;;;;;;;;;;5043927;28;20415;-73
2022/12/08 07:39:20;;;;;;;9.63;4.00;;;;;;;;;;5026585;28;20419;-73
2022/12/08 07:41:46;;;;;;;8.45;3.28;;;;;;;;;;5049028;28;20464;-73
2022/12/08 07:44:12;;;;;;;8.50;3.00;;;;;;;;;;5049708;28;20514;-73
2022/12/08 07:46:38;;;;;;;7.70;3.05;;;;;;;;;;5049483;28;20434;-73
2022/12/08 07:49:04;;;;;;;17.23;5.45;;;;;;;;;;5045841;28;20962;-73
2022/12/08 07:51:31;;;;;;;11.32;3.78;;;;;;;;;;5027166;28;20428;-73
2022/12/08 07:53:57;;;;;;;8.30;3.80;;;;;;;;;;5030375;28;20420;-73
2022/12/08 07:56:23;;;;;;;9.77;3.60;;;;;;;;;;5018987;28;20495;-73
2022/12/08 07:58:49;;;;;;;11.55;3.97;;;;;;;;;;5041974;28;20473;-73
2022/12/08 08:01:34;;;;;;;10.05;4.63;;;;;;;;;;5042405;28;20719;-73
2022/12/08 08:04:03;;;;;;;10.35;4.07;;;;;;;;;;5047447;28;21013;-74
2022/12/08 08:06:29;;;;;;;11.15;5.10;;;;;;;;;;5043372;28;20422;-73
2022/12/08 08:08:55;;;;;;;7.55;3.50;;;;;;;;;;5046882;28;20409;-72
2022/12/08 08:11:21;;;;;;;7.50;3.40;;;;;;;;;;5041790;28;20422;-72
2022/12/08 08:13:47;;;;;;;10.35;4.30;;;;;;;;;;5049041;28;20434;-72
2022/12/08 08:16:13;;;;;;;11.18;3.78;;;;;;;;;;5034597;28;20438;-71
2022/12/08 08:18:40;;;;;;;14.40;5.10;;;;;;;;;;5045967;28;20419;-71
2022/12/08 08:21:06;;;;;;;21.25;5.60;;;;;;;;;;5044378;28;20443;-72
2022/12/08 08:23:32;;;;;;;10.20;4.07;;;;;;;;;;5048952;28;20504;-72
2022/12/08 08:25:59;;;;;;;9.40;3.87;;;;;;;;;;5048133;28;20502;-72
2022/12/08 08:28:25;;;;;;;10.95;4.32;;;;;;;;;;5050013;28;20775;-71
2022/12/08 08:30:52;;;;;;;15.07;5.07;;;;;;;;;;5042694;28;20469;-72
2022/12/08 08:33:18;;;;;;;69.20;9.70;;;;;;;;;;5033647;28;20489;-72
2022/12/08 08:35:44;;;;;;;12.82;4.88;;;;;;;;;;5047708;28;20431;-72
2022/12/08 08:38:10;;;;;;;9.82;4.60;;;;;;;;;;5024964;28;20903;-72
2022/12/08 08:40:36;;;;;;;14.57;5.07;;;;;;;;;;5051262;28;20412;-72
2022/12/08 08:43:02;;;;;;;13.25;5.65;;;;;;;;;;5045921;28;20412;-72
2022/12/08 08:45:32;;;;;;;12.05;4.68;;;;;;;;;;5028506;28;20514;-71
2022/12/08 08:47:58;;;;;;;10.48;4.80;;;;;;;;;;5038140;28;20451;-71
2022/12/08 08:50:25;;;;;;;8.30;4.10;;;;;;;;;;5037999;28;20508;-72
2022/12/08 08:52:51;;;;;;;8.98;4.30;;;;;;;;;;5046336;28;20837;-71
2022/12/08 08:55:17;;;;;;;13.68;5.07;;;;;;;;;;5030883;28;20419;-72
2022/12/08 08:57:43;;;;;;;11.20;5.25;;;;;;;;;;5041151;28;20918;-71
2022/12/08 09:00:09;;;;;;;12.82;5.05;;;;;;;;;;5026414;28;20486;-72
2022/12/08 09:02:37;;;;;;;13.87;6.10;;;;;;;;;;5034510;28;20538;-72
2022/12/08 09:05:03;;;;;;;15.63;5.82;;;;;;;;;;5028483;28;20431;-72
2022/12/08 09:07:29;;;;;;;13.95;5.22;;;;;;;;;;5045451;28;20420;-72
2022/12/08 09:09:55;;;;;;;13.30;5.32;;;;;;;;;;5031333;28;20485;-71
2022/12/08 09:12:21;;;;;;;9.63;4.72;;;;;;;;;;5045495;28;20440;-71
2022/12/08 09:14:47;;;;;;;9.30;4.25;;;;;;;;;;5047667;28;20516;-71
2022/12/08 09:17:13;;;;;;;13.20;4.27;;;;;;;;;;5043907;28;20415;-71
2022/12/08 09:19:40;;;;;;;11.73;4.22;;;;;;;;;;5044090;28;20526;-71
2022/12/08 09:22:06;;;;;;;10.95;4.05;;;;;;;;;;5045206;28;20465;-71
2022/12/08 09:24:32;;;;;;;8.57;4.45;;;;;;;;;;5031064;28;20453;-72
2022/12/08 09:26:58;;;;;;;13.00;4.70;;;;;;;;;;5032862;28;20430;-72
2022/12/08 09:29:24;;;;;;;9.95;5.00;;;;;;;;;;5033423;28;20436;-73
2022/12/08 09:31:51;;;;;;;10.88;5.07;;;;;;;;;;5042715;28;20425;-73
2022/12/08 09:34:17;;;;;;;12.27;5.10;;;;;;;;;;5041485;28;20430;-72
2022/12/08 09:36:43;;;;;;;14.65;6.43;;;;;;;;;;5010419;28;20436;-72
2022/12/08 09:39:09;;;;;;;11.63;4.55;;;;;;;;;;5014857;28;20912;-72
2022/12/08 09:41:58;;;;;;;10.98;4.13;;;;;;;;;;5028802;28;21000;-73
2022/12/08 09:44:34;;;;;;;8.25;3.30;;;;;;;;;;5028727;28;20849;-73
2022/12/08 09:47:01;;;;;;;7.73;2.80;;;;;;;;;;5045421;28;21021;-73
2022/12/08 09:49:36;;;;;;;6.38;2.78;;;;;;;;;;5041368;28;20432;-72
2022/12/08 09:52:03;;;;;;;9.80;3.60;;;;;;;;;;5048336;28;21141;-72
2022/12/08 09:54:32;;;;;;;8.95;2.95;;;;;;;;;;5048494;28;20843;-73
2022/12/08 09:57:00;;;;;;;9.95;3.50;;;;;;;;;;5029899;28;20422;-73
2022/12/08 09:59:33;;;;;;;7.25;3.05;;;;;;;;;;5044967;28;20815;-73
2022/12/08 10:02:01;;;;;;;7.25;2.83;;;;;;;;;;5043724;28;20804;-73
2022/12/08 10:04:33;;;;;;;5.80;2.50;;;;;;;;;;5044931;28;20415;-72
2022/12/08 10:07:05;;;;;;;10.45;2.53;;;;;;;;;;5044549;28;20784;-73
2022/12/08 10:10:10;;;;;;;8.27;2.55;;;;;;;;;;5047425;28;20423;-72
2022/12/08 10:12:39;;;;;;;7.17;2.10;;;;;;;;;;4953689;28;20596;-72
2022/12/08 10:15:08;;;;;;;7.93;2.60;;;;;;;;;;4982324;28;20497;-72
2022/12/08 10:17:40;;;;;;;8.03;2.13;;;;;;;;;;5011497;28;20426;-72
2022/12/08 10:20:12;;;;;;;9.35;2.47;;;;;;;;;;5047987;28;20419;-72
2022/12/08 10:22:38;;;;;;;7.35;2.55;;;;;;;;;;5044412;28;20448;-73
2022/12/08 10:25:13;;;;;;;7.22;2.60;;;;;;;;;;5038722;28;20427;-72
2022/12/08 10:27:39;;;;;;;9.77;2.50;;;;;;;;;;5030095;28;20429;-72
2022/12/08 10:30:12;;;;;;;6.38;2.70;;;;;;;;;;5046517;28;20434;-71
2022/12/08 10:32:39;;;;;;;7.07;2.58;;;;;;;;;;5049394;28;20434;-72
2022/12/08 10:35:05;;;;;;;8.50;2.33;;;;;;;;;;5031902;28;20543;-72
2022/12/08 10:37:32;;;;;;;7.70;2.67;;;;;;;;;;5051411;28;20420;-72
2022/12/08 10:40:00;;;;;;;7.17;2.40;;;;;;;;;;5048154;28;20417;-72
2022/12/08 10:42:31;;;;;;;8.48;2.15;;;;;;;;;;5049433;28;20424;-72
2022/12/08 10:45:17;;;;;;;5.55;2.00;;;;;;;;;;5048024;28;20430;-71
2022/12/08 10:47:48;;;;;;;5.53;2.22;;;;;;;;;;5051589;28;21065;-71
2022/12/08 10:50:20;;;;;;;9.27;2.30;;;;;;;;;;5040267;28;20457;-80
2022/12/08 10:52:54;;;;;;;13.80;6.77;;;;;;;;;;5021219;28;20512;-81
2022/12/08 10:55:20;;;;;;;6.53;2.43;;;;;;;;;;5019519;28;20454;-80
2022/12/08 10:57:49;;;;;;;5.50;2.10;;;;;;;;;;5033346;28;20422;-79
2022/12/08 11:00:25;;;;;;;9.35;3.50;;;;;;;;;;5004839;28;20407;-80
2022/12/08 11:03:02;;;;;;;7.83;2.93;;;;;;;;;;5028257;28;20532;-80
2022/12/08 11:05:30;;;;;;;9.82;4.15;;;;;;;;;;5034267;28;20431;-80
2022/12/08 11:07:57;;;;;;;10.88;4.70;;;;;;;;;;5021055;28;20458;-80
2022/12/08 11:10:30;;;;;;;7.32;2.75;;;;;;;;;;5037708;28;20421;-79
2022/12/08 11:12:58;;;;;;;6.72;2.13;;;;;;;;;;5021144;28;20428;-78
2022/12/08 11:15:25;;;;;;;6.47;2.60;;;;;;;;;;5022907;28;20433;-81
2022/12/08 11:17:59;;;;;;;5.72;2.00;;;;;;;;;;5034088;28;20982;-79
2022/12/08 11:20:25;;;;;;;9.25;3.92;;;;;;;;;;5035345;28;20458;-80
2022/12/08 11:22:52;;;;;;;9.57;4.20;;;;;;;;;;5035160;28;20423;-80
2022/12/08 11:25:23;;;;;;;6.65;2.00;;;;;;;;;;5031747;28;20419;-80
2022/12/08 11:27:51;;;;;;;3.95;1.50;;;;;;;;;;5014980;28;20439;-79
2022/12/08 11:30:20;;;;;;;7.20;2.75;;;;;;;;;;5031523;28;20423;-79
2022/12/08 11:32:48;;;;;;;7.07;2.83;;;;;;;;;;5028416;28;20490;-79
2022/12/08 11:35:25;;;;;;;5.45;1.70;;;;;;;;;;5024148;28;21059;-80
2022/12/08 11:37:52;;;;;;;5.68;1.60;;;;;;;;;;5030431;28;20430;-71
2022/12/08 11:40:24;;;;;;;6.85;1.73;;;;;;;;;;5025117;28;20511;-71
2022/12/08 11:43:03;;;;;;;5.03;1.65;;;;;;;;;;5020284;28;20925;-72
2022/12/08 11:45:31;;;;;;;5.15;1.85;;;;;;;;;;5012065;28;20476;-74
2022/12/08 11:48:09;;;;;;;6.57;1.77;;;;;;;;;;5028569;28;21978;-73
2022/12/08 11:50:56;;;;;;;6.40;2.00;;;;;;;;;;5039188;28;20496;-71
2022/12/08 11:53:51;;;;;;;5.30;1.85;;;;;;;;;;5043180;28;20945;-72
2022/12/08 11:56:31;;;;;;;4.90;2.08;;;;;;;;;;5028462;28;20448;-72
2022/12/08 11:59:01;;;;;;;7.47;2.20;;;;;;;;;;5033378;28;20550;-72
2022/12/08 12:01:27;;;;;;;7.38;1.83;;;;;;;;;;5031870;28;20436;-72
2022/12/08 12:03:58;;;;;;;9.57;2.70;;;;;;;;;;5026785;28;20425;-72
2022/12/08 12:06:37;;;;;;;5.65;2.13;;;;;;;;;;5040833;28;20739;-73
2022/12/08 12:09:15;;;;;;;9.75;2.92;;;;;;;;;;5045849;28;20437;-74
2022/12/08 12:14:34;;;;;;;6.63;2.35;;;;;;;;;;5033073;28;20434;-74
2022/12/08 12:17:05;;;;;;;7.63;2.60;;;;;;;;;;5020053;28;20500;-75
2022/12/08 12:19:36;;;;;;;7.13;3.25;;;;;;;;;;5042702;28;20413;-74
2022/12/08 12:22:13;;;;;;;8.40;2.65;;;;;;;;;;5047294;28;20444;-73
2022/12/08 12:24:39;;;;;;;11.25;4.40;;;;;;;;;;5040070;28;20481;-74
2022/12/08 12:27:15;;;;;;;11.10;5.18;;;;;;;;;;5028964;28;20463;-74
2022/12/08 12:29:45;;;;;;;7.15;3.58;;;;;;;;;;5039667;28;20417;-74
2022/12/08 12:32:12;;;;;;;5.85;3.47;;;;;;;;;;5048191;28;20440;-74
2022/12/08 12:34:46;;;;;;;7.70;3.20;;;;;;;;;;5030720;28;20421;-74
2022/12/08 12:37:14;;;;;;;8.68;3.28;;;;;;;;;;5042969;28;20409;-74
2022/12/08 12:39:49;;;;;;;8.30;3.35;;;;;;;;;;5043553;28;20440;-74
2022/12/08 12:42:34;;;;;;;7.73;3.80;;;;;;;;;;5037576;28;20923;-74
2022/12/08 12:45:15;;;;;;;10.18;4.80;;;;;;;;;;5040522;28;20434;-73
2022/12/08 12:47:59;;;;;;;11.07;4.32;;;;;;;;;;5039361;28;20429;-72
2022/12/08 12:50:37;;;;;;;5.90;3.00;;;;;;;;;;5019038;28;20441;-74
2022/12/08 12:53:04;;;;;;;8.80;3.88;;;;;;;;;;5043696;28;20925;-74
2022/12/08 12:55:45;;;;;;;11.38;4.25;;;;;;;;;;5036191;28;20816;-74
2022/12/08 12:58:20;;;;;;;8.35;2.88;;;;;;;;;;5026187;28;20512;-74
2022/12/08 13:00:47;;;;;;;6.75;2.20;;;;;;;;;;5043469;28;20738;-74
2022/12/08 13:03:16;;;;;;;8.15;2.20;;;;;;;;;;5042881;28;20452;-74
2022/12/08 13:05:52;;;;;;;5.88;2.30;;;;;;;;;;5038815;28;20423;-74
2022/12/08 13:08:21;;;;;;;5.60;1.45;;;;;;;;;;5043002;28;20428;-74
2022/12/08 13:11:01;;;;;;;3.53;1.33;;;;;;;;;;5039450;28;20425;-74
2022/12/08 13:13:27;;;;;;;4.85;1.30;;;;;;;;;;5034519;28;20421;-74
2022/12/08 13:16:14;;;;;;;5.25;1.08;;;;;;;;;;5051230;28;20433;-73
2022/12/08 13:18:42;;;;;;;5.65;1.20;;;;;;;;;;5027498;28;20455;-82
2022/12/08 13:21:08;;;;;;;3.85;1.13;;;;;;;;;;5030805;28;20421;-82
2022/12/08 13:23:37;;;;;;;5.00;1.40;;;;;;;;;;5035236;28;20421;-80
2022/12/08 13:26:22;;;;;;;5.15;1.10;;;;;;;;;;5042408;28;20464;-81
2022/12/08 13:29:02;;;;;;;5.03;1.30;;;;;;;;;;5048416;28;20491;-80
2022/12/08 13:31:40;;;;;;;3.80;1.30;;;;;;;;;;5033379;28;20434;-82
2022/12/08 13:34:13;;;;;;;3.70;0.95;;;;;;;;;;5029648;28;20884;-82
2022/12/08 13:36:43;;;;;;;4.88;1.17;;;;;;;;;;5028205;28;20479;-82
2022/12/08 13:39:19;;;;;;;3.20;1.10;;;;;;;;;;5043516;28;20429;-82
2022/12/08 13:41:57;;;;;;;3.75;1.00;;;;;;;;;;5025637;28;20765;-81
2022/12/08 13:44:27;;;;;;;6.35;1.23;;;;;;;;;;5040321;28;20504;-81
2022/12/08 13:46:54;;;;;;;7.53;1.40;;;;;;;;;;5045040;28;20425;-82
2022/12/08 13:49:49;;;;;;;5.55;1.20;;;;;;;;;;5046925;28;20492;-81
2022/12/08 13:52:31;;;;;;;6.80;1.58;;;;;;;;;;5051735;28;20438;-82
2022/12/08 13:55:01;;;;;;;6.90;1.67;;;;;;;;;;5053685;28;20871;-81
2022/12/08 13:57:29;;;;;;;4.50;1.67;;;;;;;;;;5050385;28;20422;-81
2022/12/08 13:59:59;;;;;;;7.38;1.90;;;;;;;;;;5033603;28;20421;-82
2022/12/08 14:02:34;;;;;;;5.23;1.20;;;;;;;;;;5030171;28;20450;-81
2022/12/08 14:05:01;;;;;;;4.78;1.10;;;;;;;;;;5052692;28;20891;-82
2022/12/08 14:07:27;;;;;;;8.05;1.30;;;;;;;;;;5036808;28;20414;-81
2022/12/08 14:09:53;;;;;;;3.57;1.10;;;;;;;;;;5055864;28;20935;-80
2022/12/08 14:12:21;;;;;;;6.53;1.30;;;;;;;;;;5023656;28;20905;-81
2022/12/08 14:14:49;;;;;;;4.07;1.10;;;;;;;;;;5054715;28;20479;-80
2022/12/08 14:17:17;;;;;;;5.20;1.20;;;;;;;;;;5036394;28;20497;-80
2022/12/08 14:19:44;;;;;;;6.35;1.00;;;;;;;;;;5048425;28;20407;-81
2022/12/08 14:22:12;;;;;;;3.88;1.10;;;;;;;;;;5054128;28;20427;-81
2022/12/08 14:24:38;;;;;;;5.43;1.40;;;;;;;;;;5038188;28;20895;-81
2022/12/08 14:27:06;;;;;;;6.47;1.38;;;;;;;;;;5040926;28;20407;-80
2022/12/08 14:29:37;;;;;;;5.10;1.65;;;;;;;;;;5072514;28;20403;-80
2022/12/08 14:32:04;;;;;;;4.18;1.20;;;;;;;;;;5081138;28;20531;-81
2022/12/08 14:34:39;;;;;;;3.33;1.30;;;;;;;;;;5026520;28;20520;-80
2022/12/08 14:37:05;;;;;;;4.88;1.70;;;;;;;;;;5052006;28;20450;-80
2022/12/08 14:39:31;;;;;;;5.32;1.60;;;;;;;;;;5059423;28;20416;-80
2022/12/08 14:42:00;;;;;;;4.43;1.80;;;;;;;;;;5068267;28;20452;-80
2022/12/08 14:44:31;;;;;;;4.22;1.30;;;;;;;;;;5058988;28;20459;-80
2022/12/08 14:47:10;;;;;;;5.50;1.50;;;;;;;;;;5055405;28;20552;-80
2022/12/08 14:49:38;;;;;;;3.80;1.30;;;;;;;;;;5033045;28;20436;-81
2022/12/08 14:52:11;;;;;;;5.90;2.00;;;;;;;;;;5052292;28;20427;-80
2022/12/08 14:54:38;;;;;;;6.45;2.28;;;;;;;;;;5049478;28;20419;-79
2022/12/08 14:57:04;;;;;;;4.75;1.83;;;;;;;;;;5071117;28;20732;-81
2022/12/08 14:59:32;;;;;;;4.80;1.60;;;;;;;;;;5050961;28;20885;-81